createdAt,value
2022-10-30T00:02:21.974Z,97488.25
2022-10-30T00:04:48.378Z,97474.25
2022-10-30T00:07:14.724Z,97497.31
2022-10-30T00:09:41.093Z,97482.22
2022-10-30T00:12:07.587Z,97457.22
2022-10-30T00:14:34.121Z,97472.03
2022-10-30T00:17:00.477Z,97478.88
2022-10-30T00:19:26.890Z,97485.56
2022-10-30T00:21:53.303Z,97479.81
2022-10-30T00:24:19.694Z,97475.94
2022-10-30T00:26:46.040Z,97490.22
2022-10-30T00:29:12.429Z,97504.81
2022-10-30T00:31:38.910Z,97497.06
2022-10-30T00:34:05.305Z,97489.78
2022-10-30T00:36:31.886Z,97481.59
2022-10-30T00:38:58.326Z,97497.56
2022-10-30T00:41:25.257Z,97486.06
2022-10-30T00:43:51.975Z,97504.41
2022-10-30T00:46:39.178Z,97493.41
2022-10-30T00:49:12.314Z,97495.69
2022-10-30T00:51:42.001Z,97447.84
2022-10-30T00:54:10.377Z,97489.72
2022-10-30T00:56:37.396Z,97472.94
2022-10-30T00:59:11.606Z,97478.97
2022-10-30T01:01:40.500Z,97477.78
2022-10-30T01:04:07.328Z,97474.28
2022-10-30T01:06:36.811Z,97480.00
2022-10-30T01:09:04.171Z,97485.69
2022-10-30T01:11:31.249Z,97490.09
2022-10-30T01:14:02.945Z,97496.31
2022-10-30T01:16:50.987Z,97496.69
2022-10-30T01:19:34.466Z,97503.56
2022-10-30T01:22:22.847Z,97484.16
2022-10-30T01:24:56.111Z,97499.66
2022-10-30T01:27:41.372Z,97494.28
2022-10-30T01:30:13.517Z,97483.41
2022-10-30T01:33:02.844Z,97473.69
2022-10-30T01:35:56.610Z,97452.91
2022-10-30T01:38:39.451Z,97466.34
2022-10-30T01:41:05.822Z,97480.88
2022-10-30T01:43:34.426Z,97470.28
2022-10-30T01:46:25.514Z,97460.63
2022-10-30T01:48:57.681Z,97471.34
2022-10-30T01:51:42.102Z,97480.44
2022-10-30T01:54:21.849Z,97470.91
2022-10-30T01:56:58.526Z,97468.88
2022-10-30T01:59:30.423Z,97476.69
2022-10-30T02:01:58.261Z,97477.72
2022-10-30T02:04:25.045Z,97476.84
2022-10-30T02:06:51.711Z,97488.84
2022-10-30T02:09:18.519Z,97492.59
2022-10-30T02:11:47.719Z,97489.59
2022-10-30T02:14:18.597Z,97457.34
2022-10-30T02:16:48.960Z,97487.06
2022-10-30T02:19:16.075Z,97477.28
2022-10-30T02:21:42.494Z,97483.66
2022-10-30T02:24:08.976Z,97483.66
2022-10-30T02:26:35.378Z,97484.41
2022-10-30T02:29:01.785Z,97474.97
2022-10-30T02:31:28.657Z,97492.25
2022-10-30T02:33:55.123Z,97481.59
2022-10-30T02:36:21.548Z,97500.78
2022-10-30T02:38:48.020Z,97500.84
2022-10-30T02:41:14.668Z,97495.84
2022-10-30T02:43:41.109Z,97508.94
2022-10-30T02:46:07.547Z,97516.38
2022-10-30T02:48:34.203Z,97500.22
2022-10-30T02:51:01.691Z,97503.13
2022-10-30T02:53:28.600Z,97505.72
2022-10-30T02:55:55.426Z,97504.19
2022-10-30T02:58:22.108Z,97507.03
2022-10-30T03:00:48.547Z,97502.13
2022-10-30T03:03:17.509Z,97468.38
2022-10-30T03:05:46.510Z,97489.72
2022-10-30T03:08:13.005Z,97494.41
2022-10-30T03:10:40.202Z,97503.78
2022-10-30T03:13:06.597Z,97486.94
2022-10-30T03:15:32.982Z,97483.53
2022-10-30T03:17:59.586Z,97482.91
2022-10-30T03:20:26.155Z,97473.31
2022-10-30T03:22:52.992Z,97480.38
2022-10-30T03:25:23.483Z,97464.59
2022-10-30T03:27:50.179Z,97457.25
2022-10-30T03:30:16.562Z,97451.84
2022-10-30T03:32:42.967Z,97461.81
2022-10-30T03:35:09.333Z,97470.16
2022-10-30T03:37:35.766Z,97476.84
2022-10-30T03:40:02.135Z,97457.63
2022-10-30T03:42:28.515Z,97474.19
2022-10-30T03:44:54.880Z,97475.47
2022-10-30T03:47:21.298Z,97468.56
2022-10-30T03:49:47.672Z,97465.97
2022-10-30T03:52:14.072Z,97461.44
2022-10-30T03:54:40.460Z,97466.41
2022-10-30T03:57:06.852Z,97459.09
2022-10-30T03:59:33.288Z,97466.50
2022-10-30T04:01:59.768Z,97441.94
2022-10-30T04:04:26.267Z,97464.56
2022-10-30T04:06:53.027Z,97461.53
2022-10-30T04:09:19.419Z,97472.16
2022-10-30T04:11:45.816Z,97480.88
2022-10-30T04:14:12.220Z,97468.13
2022-10-30T04:16:38.613Z,97487.97
2022-10-30T04:19:05.017Z,97468.25
2022-10-30T04:21:31.445Z,97459.19
2022-10-30T04:23:58.560Z,97461.44
2022-10-30T04:26:24.973Z,97475.06
2022-10-30T04:28:51.385Z,97484.41
2022-10-30T04:31:18.146Z,97477.34
2022-10-30T04:33:44.496Z,97477.34
2022-10-30T04:36:11.173Z,97495.03
2022-10-30T04:38:37.599Z,97499.38
2022-10-30T04:41:04.076Z,97502.13
2022-10-30T04:43:30.447Z,97498.34
2022-10-30T04:45:56.871Z,97491.16
2022-10-30T04:48:23.238Z,97491.00
2022-10-30T04:50:49.640Z,97479.59
2022-10-30T04:53:18.585Z,97468.97
2022-10-30T04:55:45.896Z,97454.88
2022-10-30T04:58:13.748Z,97460.63
2022-10-30T05:00:41.563Z,97459.88
2022-10-30T05:03:14.828Z,97459.56
2022-10-30T05:05:41.276Z,97440.75
2022-10-30T05:08:08.501Z,97472.69
2022-10-30T05:10:34.870Z,97465.34
2022-10-30T05:13:01.338Z,97416.13
2022-10-30T05:15:27.751Z,97478.84
2022-10-30T05:17:54.110Z,97473.53
2022-10-30T05:20:21.151Z,97475.19
2022-10-30T05:22:54.848Z,97473.63
2022-10-30T05:25:21.173Z,97461.63
2022-10-30T05:27:47.738Z,97460.09
2022-10-30T05:30:14.298Z,97465.47
2022-10-30T05:32:40.689Z,97485.13
2022-10-30T05:35:07.484Z,97492.28
2022-10-30T05:37:34.047Z,97478.09
2022-10-30T05:40:00.423Z,97508.28
2022-10-30T05:42:26.901Z,97509.19
2022-10-30T05:45:00.904Z,97505.97
2022-10-30T05:47:28.076Z,97500.06
2022-10-30T05:49:54.558Z,97504.66
2022-10-30T05:52:21.259Z,97513.97
2022-10-30T05:54:47.679Z,97507.97
2022-10-30T05:57:14.145Z,97515.84
2022-10-30T05:59:40.585Z,97521.03
2022-10-30T06:02:07.135Z,97514.09
2022-10-30T06:04:33.696Z,97505.06
2022-10-30T06:07:00.113Z,97489.06
2022-10-30T06:09:26.497Z,97502.22
2022-10-30T06:11:53.648Z,97506.66
2022-10-30T06:14:20.051Z,97509.94
2022-10-30T06:16:46.645Z,97518.91
2022-10-30T06:19:17.459Z,97530.31
2022-10-30T06:21:45.535Z,97505.28
2022-10-30T06:24:12.180Z,97514.25
2022-10-30T06:26:38.571Z,97516.75
2022-10-30T06:29:04.970Z,97521.31
2022-10-30T06:31:31.790Z,97532.69
2022-10-30T06:33:58.255Z,97532.63
2022-10-30T06:36:24.613Z,97529.91
2022-10-30T06:38:50.977Z,97545.34
2022-10-30T06:41:17.405Z,97547.34
2022-10-30T06:43:43.830Z,97552.53
2022-10-30T06:46:10.275Z,97552.09
2022-10-30T06:48:36.696Z,97561.88
2022-10-30T06:51:03.430Z,97550.72
2022-10-30T06:53:29.899Z,97556.19
2022-10-30T06:56:01.574Z,97537.13
2022-10-30T06:58:30.338Z,97529.03
2022-10-30T07:01:00.827Z,97522.22
2022-10-30T07:03:27.233Z,97531.81
2022-10-30T07:05:53.609Z,97530.13
2022-10-30T07:08:20.064Z,97512.97
2022-10-30T07:10:46.453Z,97524.47
2022-10-30T07:13:12.949Z,97539.16
2022-10-30T07:15:39.454Z,97534.41
2022-10-30T07:18:06.190Z,97541.00
2022-10-30T07:20:35.078Z,97555.47
2022-10-30T07:23:02.521Z,97561.69
2022-10-30T07:25:30.029Z,97558.72
2022-10-30T07:27:57.707Z,97557.50
2022-10-30T07:33:00.278Z,97601.25
2022-10-30T07:35:27.969Z,97634.97
2022-10-30T07:37:54.444Z,97681.00
2022-10-30T07:40:21.224Z,97698.06
2022-10-30T07:42:47.888Z,97706.69
2022-10-30T07:45:14.316Z,97726.78
2022-10-30T07:47:42.080Z,97734.88
2022-10-30T07:50:09.117Z,97732.47
2022-10-30T07:52:35.960Z,97742.75
2022-10-30T07:55:03.521Z,97699.31
2022-10-30T07:57:37.504Z,97731.44
2022-10-30T08:00:05.911Z,97735.88
2022-10-30T08:02:32.925Z,97742.16
2022-10-30T08:04:59.679Z,97729.00
2022-10-30T08:07:33.980Z,97746.69
2022-10-30T08:10:00.422Z,97739.63
2022-10-30T08:12:27.438Z,97750.13
2022-10-30T08:14:54.413Z,97767.91
2022-10-30T08:17:21.612Z,97747.72
2022-10-30T08:19:48.099Z,97747.22
2022-10-30T08:22:14.509Z,97752.50
2022-10-30T08:24:40.953Z,97716.81
2022-10-30T08:27:07.422Z,97695.00
2022-10-30T08:29:34.874Z,97702.41
2022-10-30T08:32:01.531Z,97710.56
2022-10-30T08:34:28.075Z,97627.53
2022-10-30T08:36:54.639Z,97736.63
2022-10-30T08:39:21.113Z,97898.53
2022-10-30T08:41:47.536Z,97984.16
2022-10-30T08:44:14.293Z,98190.16
2022-10-30T08:46:40.645Z,98326.13
2022-10-30T08:49:07.061Z,98472.06
2022-10-30T08:51:35.417Z,98568.25
2022-10-30T08:54:01.797Z,98675.09
2022-10-30T08:56:28.201Z,98743.16
2022-10-30T08:58:54.729Z,98816.84
2022-10-30T09:01:21.264Z,98847.78
2022-10-30T09:03:47.935Z,98903.22
2022-10-30T09:06:14.320Z,98901.34
2022-10-30T09:08:40.749Z,98971.00
2022-10-30T09:11:07.200Z,99286.28
2022-10-30T09:13:33.569Z,99318.06
2022-10-30T09:16:01.629Z,99321.25
2022-10-30T09:18:28.373Z,99332.63
2022-10-30T09:20:54.920Z,99319.81
2022-10-30T09:23:21.524Z,99325.47
2022-10-30T09:25:47.908Z,99321.16
2022-10-30T09:28:14.399Z,99316.41
2022-10-30T09:30:40.908Z,99322.97
2022-10-30T09:33:07.430Z,99317.47
2022-10-30T09:35:34.011Z,99315.22
2022-10-30T09:38:00.937Z,99317.50
2022-10-30T09:41:07.039Z,99335.44
2022-10-30T09:43:59.859Z,99317.00
2022-10-30T09:46:44.789Z,99323.91
2022-10-30T09:49:17.402Z,99330.25
2022-10-30T09:52:17.060Z,99338.78
2022-10-30T09:54:52.218Z,99335.84
2022-10-30T09:57:49.159Z,99337.41
2022-10-30T10:00:20.213Z,99336.53
2022-10-30T10:03:16.611Z,99323.72
2022-10-30T10:05:53.537Z,99331.25
2022-10-30T10:08:27.471Z,99321.88
2022-10-30T10:11:19.403Z,99346.59
2022-10-30T10:13:51.430Z,99347.56
2022-10-30T10:16:25.094Z,99337.91
2022-10-30T10:19:00.683Z,99339.03
2022-10-30T10:21:29.613Z,99330.56
2022-10-30T10:24:00.716Z,99334.84
2022-10-30T10:26:50.403Z,99333.13
2022-10-30T10:29:25.795Z,99335.03
2022-10-30T10:31:58.163Z,99332.63
2022-10-30T10:34:44.240Z,99339.94
2022-10-30T10:37:24.899Z,99338.38
2022-10-30T10:40:03.179Z,99337.22
2022-10-30T10:43:02.075Z,99344.53
2022-10-30T10:45:41.940Z,99334.38
2022-10-30T10:48:32.632Z,99334.94
2022-10-30T10:51:06.241Z,99325.84
2022-10-30T10:53:53.743Z,99325.06
2022-10-30T10:56:26.567Z,99322.00
2022-10-30T10:58:59.708Z,99328.09
2022-10-30T11:01:40.328Z,99323.28
2022-10-30T11:04:19.960Z,99277.53
2022-10-30T11:06:54.094Z,99318.69
2022-10-30T11:09:22.951Z,99322.03
2022-10-30T11:11:51.507Z,99317.09
2022-10-30T11:14:23.749Z,99322.78
2022-10-30T11:17:08.811Z,99314.94
2022-10-30T11:19:35.521Z,99320.31
2022-10-30T11:22:06.019Z,99314.91
2022-10-30T11:24:36.155Z,99314.97
2022-10-30T11:27:18.512Z,99322.03
2022-10-30T11:29:51.876Z,99294.16
2022-10-30T11:32:23.540Z,99320.50
2022-10-30T11:35:08.183Z,99320.84
2022-10-30T11:37:39.431Z,99310.47
2022-10-30T11:40:06.243Z,99311.25
2022-10-30T11:42:33.854Z,99300.19
2022-10-30T11:45:00.603Z,99299.25
2022-10-30T11:50:15.831Z,99311.34
2022-10-30T11:52:44.180Z,99305.50
2022-10-30T11:55:16.580Z,99301.66
2022-10-30T11:57:46.277Z,99306.63
2022-10-30T12:00:20.310Z,99308.72
2022-10-30T12:02:51.369Z,99292.25
2022-10-30T12:05:43.746Z,99295.03
2022-10-30T12:08:17.056Z,99301.47
2022-10-30T12:10:52.266Z,99290.28
2022-10-30T12:13:21.289Z,99299.25
2022-10-30T12:15:51.181Z,99292.41
2022-10-30T12:18:21.490Z,99300.06
2022-10-30T12:20:52.249Z,99288.03
2022-10-30T12:23:22.152Z,99292.03
2022-10-30T12:25:51.115Z,99267.78
2022-10-30T12:28:21.368Z,99273.03
2022-10-30T12:30:54.882Z,99276.94
2022-10-30T12:33:41.531Z,99286.91
2022-10-30T12:36:22.317Z,99282.13
2022-10-30T12:39:00.426Z,99280.13
2022-10-30T12:41:33.236Z,99271.75
2022-10-30T12:44:10.700Z,99257.47
2022-10-30T12:46:50.907Z,99260.25
2022-10-30T12:49:34.035Z,99278.47
2022-10-30T12:52:15.705Z,99270.34
2022-10-30T12:55:16.185Z,99257.38
2022-10-30T12:58:27.643Z,99262.16
2022-10-30T13:01:17.158Z,99255.56
2022-10-30T13:04:08.292Z,99261.47
2022-10-30T13:07:29.973Z,99257.16
2022-10-30T13:10:12.959Z,99247.25
2022-10-30T13:12:42.993Z,99254.88
2022-10-30T13:15:36.253Z,99252.78
2022-10-30T13:18:14.549Z,99233.50
2022-10-30T13:20:44.157Z,99244.81
2022-10-30T13:23:19.705Z,99249.31
2022-10-30T13:26:10.038Z,99248.63
2022-10-30T13:28:45.908Z,99241.34
2022-10-30T13:31:27.714Z,99241.09
2022-10-30T13:34:03.346Z,99226.75
2022-10-30T13:36:48.125Z,99237.53
2022-10-30T13:39:39.321Z,99219.69
2022-10-30T13:42:44.344Z,99238.72
2022-10-30T13:45:36.934Z,99232.16
2022-10-30T13:48:15.166Z,99231.19
2022-10-30T13:50:54.681Z,99234.19
2022-10-30T13:53:25.778Z,99228.81
2022-10-30T13:55:52.886Z,99221.56
2022-10-30T13:58:25.114Z,99232.22
2022-10-30T14:00:54.469Z,99228.06
2022-10-30T14:03:27.133Z,99226.22
2022-10-30T14:06:02.905Z,99231.63
2022-10-30T14:09:02.860Z,99230.13
2022-10-30T14:11:29.272Z,99224.00
2022-10-30T14:14:13.150Z,99223.38
2022-10-30T14:16:44.795Z,99233.00
2022-10-30T14:19:18.193Z,99215.56
2022-10-30T14:21:55.206Z,99229.81
2022-10-30T14:24:30.268Z,99221.09
2022-10-30T14:27:02.706Z,99223.94
2022-10-30T14:29:35.543Z,99226.63
2022-10-30T14:32:22.640Z,99230.00
2022-10-30T14:34:52.072Z,99233.34
2022-10-30T14:37:38.365Z,99231.56
2022-10-30T14:40:56.554Z,99231.75
2022-10-30T14:43:36.230Z,99216.69
2022-10-30T14:46:19.847Z,99227.13
2022-10-30T14:48:52.985Z,99232.97
2022-10-30T14:51:23.013Z,99233.19
2022-10-30T14:54:00.589Z,99230.47
2022-10-30T14:56:50.636Z,99235.06
2022-10-30T14:59:17.293Z,99235.13
2022-10-30T15:02:10.036Z,99234.13
2022-10-30T15:04:51.895Z,99237.84
2022-10-30T15:07:24.555Z,99245.34
2022-10-30T15:10:00.805Z,99237.06
2022-10-30T15:12:34.352Z,99237.47
2022-10-30T15:15:04.944Z,99239.38
2022-10-30T15:17:36.936Z,99238.50
2022-10-30T15:20:14.482Z,99236.28
2022-10-30T15:22:41.562Z,99212.88
2022-10-30T15:25:19.182Z,99243.38
2022-10-30T15:27:49.322Z,99217.03
2022-10-30T15:30:19.118Z,99242.72
2022-10-30T15:32:45.691Z,99248.50
2022-10-30T15:35:19.853Z,99234.38
2022-10-30T15:38:06.128Z,99239.78
2022-10-30T15:40:37.372Z,99234.41
2022-10-30T15:43:06.539Z,99223.59
2022-10-30T15:45:33.180Z,99234.59
2022-10-30T15:48:02.820Z,99239.31
2022-10-30T15:50:29.998Z,99235.16
2022-10-30T15:52:56.800Z,99235.19
2022-10-30T15:55:33.164Z,99221.69
2022-10-30T15:58:13.266Z,99221.59
2022-10-30T16:00:40.073Z,99235.47
2022-10-30T16:03:10.822Z,99245.03
2022-10-30T16:05:37.325Z,99243.22
2022-10-30T16:08:12.792Z,99246.66
2022-10-30T16:10:41.462Z,99231.25
2022-10-30T16:13:16.363Z,99236.22
2022-10-30T16:15:44.238Z,99232.28
2022-10-30T16:18:19.031Z,99234.53
2022-10-30T16:20:50.037Z,99233.94
2022-10-30T16:23:20.126Z,99229.63
2022-10-30T16:25:48.042Z,99230.78
2022-10-30T16:28:26.396Z,99224.81
2022-10-30T16:30:53.782Z,99220.91
2022-10-30T16:33:26.121Z,99207.91
2022-10-30T16:35:55.735Z,99178.84
2022-10-30T16:38:23.784Z,99146.66
2022-10-30T16:40:51.198Z,99143.88
2022-10-30T16:43:29.181Z,99134.19
2022-10-30T16:46:10.058Z,99112.38
2022-10-30T16:48:37.944Z,99097.41
2022-10-30T16:51:04.496Z,99065.94
2022-10-30T16:53:31.935Z,99068.00
2022-10-30T16:55:59.797Z,99071.03
2022-10-30T16:58:31.321Z,99030.72
2022-10-30T17:01:05.549Z,99019.13
2022-10-30T17:03:38.182Z,99045.81
2022-10-30T17:06:08.270Z,99050.25
2022-10-30T17:08:41.539Z,99067.09
2022-10-30T17:11:17.534Z,99062.75
2022-10-30T17:13:52.938Z,99059.88
2022-10-30T17:16:39.292Z,99071.03
2022-10-30T17:19:34.654Z,99137.94
2022-10-30T17:22:10.696Z,99146.03
2022-10-30T17:24:38.615Z,99161.53
2022-10-30T17:27:22.311Z,99177.88
2022-10-30T17:29:48.863Z,99177.06
2022-10-30T17:32:20.157Z,99181.28
2022-10-30T17:34:47.671Z,99195.75
2022-10-30T17:37:14.081Z,99205.19
2022-10-30T17:39:40.476Z,99219.28
2022-10-30T17:42:07.702Z,99214.63
2022-10-30T17:44:35.541Z,99214.66
2022-10-30T17:47:17.295Z,99226.47
2022-10-30T17:49:44.121Z,99251.00
2022-10-30T17:52:15.145Z,99252.84
2022-10-30T17:54:41.941Z,99267.63
2022-10-30T17:57:12.656Z,99274.59
2022-10-30T17:59:39.689Z,99283.28
2022-10-30T18:02:14.106Z,99280.53
2022-10-30T18:04:43.619Z,99273.31
2022-10-30T18:07:11.061Z,99264.53
2022-10-30T18:09:37.926Z,99272.63
2022-10-30T18:12:05.610Z,99256.78
2022-10-30T18:14:32.284Z,99279.09
2022-10-30T18:16:58.728Z,99269.31
2022-10-30T18:19:25.464Z,99277.06
2022-10-30T18:21:51.895Z,99270.09
2022-10-30T18:24:18.493Z,99256.06
2022-10-30T18:26:45.438Z,99262.91
2022-10-30T18:29:12.485Z,99257.06
2022-10-30T18:31:39.684Z,99271.03
2022-10-30T18:34:18.273Z,99253.44
2022-10-30T18:36:44.706Z,99251.66
2022-10-30T18:39:12.913Z,99240.16
2022-10-30T18:41:44.959Z,99226.41
2022-10-30T18:44:18.485Z,99223.28
2022-10-30T18:46:45.272Z,99227.56
2022-10-30T18:49:12.160Z,99205.66
2022-10-30T18:51:39.317Z,99222.84
2022-10-30T18:54:15.012Z,99224.75
2022-10-30T18:56:41.736Z,99212.66
2022-10-30T18:59:08.309Z,99219.50
2022-10-30T19:01:35.253Z,99187.72
2022-10-30T19:04:03.693Z,99198.94
2022-10-30T19:06:30.569Z,99211.06
2022-10-30T19:08:56.951Z,99203.25
2022-10-30T19:11:25.466Z,99215.22
2022-10-30T19:13:53.484Z,99204.31
2022-10-30T19:16:20.601Z,99211.53
2022-10-30T19:18:48.474Z,99203.16
2022-10-30T19:21:17.502Z,99220.34
2022-10-30T19:23:44.307Z,99229.47
2022-10-30T19:28:43.064Z,99221.94
2022-10-30T19:31:18.176Z,99228.59
2022-10-30T19:33:45.071Z,99217.13
2022-10-30T19:36:33.810Z,99238.28
2022-10-30T19:39:07.282Z,99255.19
2022-10-30T19:41:35.234Z,99253.59
2022-10-30T19:44:01.629Z,99262.84
2022-10-30T19:46:28.009Z,99262.59
2022-10-30T19:48:58.900Z,99256.84
2022-10-30T19:51:27.143Z,99277.63
2022-10-30T19:53:53.927Z,99276.53
2022-10-30T19:56:21.479Z,99281.00
2022-10-30T19:58:47.904Z,99269.63
2022-10-30T20:01:14.731Z,99294.84
2022-10-30T20:03:41.360Z,99292.16
2022-10-30T20:06:10.513Z,99278.72
2022-10-30T20:08:36.949Z,99309.78
2022-10-30T20:11:03.396Z,99305.84
2022-10-30T20:13:30.167Z,99309.25
2022-10-30T20:15:59.641Z,99310.72
2022-10-30T20:18:30.344Z,99312.63
2022-10-30T20:21:01.906Z,99310.72
2022-10-30T20:23:29.170Z,99309.88
2022-10-30T20:26:02.023Z,99316.56
2022-10-30T20:28:32.900Z,99315.28
2022-10-30T20:30:59.389Z,99315.75
2022-10-30T20:33:26.959Z,99323.84
2022-10-30T20:35:54.856Z,99310.22
2022-10-30T20:38:28.990Z,99326.72
2022-10-30T20:40:56.994Z,99323.97
2022-10-30T20:43:43.588Z,99330.84
2022-10-30T20:46:10.280Z,99336.75
2022-10-30T20:48:38.039Z,99334.91
2022-10-30T20:51:06.025Z,99335.00
2022-10-30T20:53:32.862Z,99332.94
2022-10-30T20:55:59.630Z,99328.50
2022-10-30T20:58:26.084Z,99326.19
2022-10-30T21:00:58.280Z,99345.22
2022-10-30T21:03:27.372Z,99345.22
2022-10-30T21:05:59.803Z,99341.00
2022-10-30T21:08:28.176Z,99346.06
2022-10-30T21:10:59.753Z,99344.16
2022-10-30T21:13:27.610Z,99354.13
2022-10-30T21:15:55.229Z,99350.78
2022-10-30T21:18:21.657Z,99345.06
2022-10-30T21:20:48.046Z,99351.72
2022-10-30T21:23:14.473Z,99339.44
2022-10-30T21:25:40.836Z,99337.03
2022-10-30T21:28:07.245Z,99348.75
2022-10-30T21:30:33.673Z,99341.91
2022-10-30T21:33:00.496Z,99348.75
2022-10-30T21:35:27.806Z,99330.59
2022-10-30T21:37:54.233Z,99340.53
2022-10-30T21:40:20.642Z,99315.44
2022-10-30T21:42:48.116Z,99265.91
2022-10-30T21:45:14.606Z,99158.47
2022-10-30T21:47:41.006Z,99082.94
2022-10-30T21:50:11.672Z,99063.94
2022-10-30T21:52:39.034Z,99067.13
2022-10-30T21:55:05.681Z,99049.44
2022-10-30T21:57:32.247Z,99059.03
2022-10-30T22:00:01.588Z,99048.88
2022-10-30T22:02:32.200Z,99045.44
2022-10-30T22:04:58.599Z,99004.53
2022-10-30T22:07:25.059Z,98957.13
2022-10-30T22:09:51.500Z,98944.88
2022-10-30T22:12:17.912Z,98957.22
2022-10-30T22:14:44.287Z,98960.38
2022-10-30T22:17:10.738Z,98957.22
2022-10-30T22:19:37.392Z,98953.03
2022-10-30T22:22:03.804Z,98946.53
2022-10-30T22:24:30.189Z,98937.50
2022-10-30T22:26:56.605Z,98925.66
2022-10-30T22:29:23.001Z,98910.88
2022-10-30T22:31:49.774Z,98880.25
2022-10-30T22:34:16.236Z,98888.25
2022-10-30T22:36:42.609Z,98866.66
2022-10-30T22:39:12.528Z,98859.06
2022-10-30T22:41:39.730Z,98838.50
2022-10-30T22:44:08.517Z,98811.25
2022-10-30T22:46:36.024Z,98820.91
2022-10-30T22:49:03.488Z,98826.22
2022-10-30T22:51:32.734Z,98837.13
2022-10-30T22:54:02.383Z,98846.16
2022-10-30T22:56:31.601Z,98844.13
2022-10-30T22:59:09.765Z,98839.97
2022-10-30T23:01:37.529Z,98851.94
2022-10-30T23:04:05.176Z,98844.50
2022-10-30T23:06:33.141Z,98815.31
2022-10-30T23:09:01.478Z,98836.56
2022-10-30T23:11:29.037Z,98832.84
2022-10-30T23:13:56.076Z,98812.25
2022-10-30T23:16:24.700Z,98801.47
2022-10-30T23:18:53.545Z,98772.56
2022-10-30T23:21:22.166Z,98748.31
2022-10-30T23:23:49.461Z,98719.91
2022-10-30T23:26:17.523Z,98698.59
2022-10-30T23:28:45.188Z,98653.88
2022-10-30T23:31:39.563Z,98674.16
2022-10-30T23:34:08.902Z,98663.53
2022-10-30T23:36:35.522Z,98647.72
2022-10-30T23:39:04.165Z,98660.91
2022-10-30T23:41:32.036Z,98628.31
2022-10-30T23:44:00.353Z,98574.03
2022-10-30T23:46:27.383Z,98389.06
2022-10-30T23:48:54.028Z,98328.72
2022-10-30T23:51:21.264Z,98303.75
2022-10-30T23:53:48.089Z,98295.63
2022-10-30T23:56:14.640Z,98260.84
2022-10-30T23:58:48.960Z,98254.03
